Latest Coastal Weather Observations for Kowanyama

IDQ60701

Issued at 4:32 pm EST Wednesday 8 February 2023 (issued every 10 minutes, with the page automatically refreshed every 10 minutes)

About coastal observations | Map of coastal stations | Coastal observations for QLD | Marine services | Other Formats
Station Details ID: 029038 Name: KOWANYAMA AIRPORT Lat: -15.48 Lon: 141.75 Height: 9.6 m
Data from the previous 72 hours. | See also: Recent months at Kowanyama
Date/Time
EST
Wind Sea
Height
m
Swell Vis
km
Cloud Weather Temp
°C
Press
MSL
hPa
Rain since
9am
mm
Dir  Spd
kts
Gust
kts
Height
m
Period
s
Dir
08/04:30pm WNW 10 13 - - - - 10 Partly cloudy - 30.5 1001.1 0.0
08/04:00pm W 10 14 - - - - 10 - - 31.3 1001.4 0.0
08/03:30pm WNW 9 13 - - - - 10 - - 33.0 1001.3 0.0
08/03:00pm WNW 9 13 - - - - 10 - - 32.6 1001.4 0.0
08/02:30pm W 8 10 - - - - 10 Partly cloudy - 32.8 1002.0 0.0
08/02:00pm ESE 3 6 - - - - 10 Partly cloudy - 33.8 1002.3 0.0
08/01:30pm SSW 5 8 - - - - 10 Partly cloudy - 33.3 1002.8 0.0
08/01:00pm W 3 6 - - - - 10 - - 33.1 1003.1 0.0
08/12:30pm W 4 6 - - - - 10 Partly cloudy - 33.3 1003.6 0.0
08/12:00pm SSE 5 7 - - - - 10 - - 32.3 1004.1 0.0
08/11:30am ESE 1 5 - - - - 10 - - 32.8 1004.5 0.0
08/11:00am SE 6 9 - - - - 10 Partly cloudy - 31.8 1004.8 0.0
08/10:30am SSE 5 7 - - - - 10 Partly cloudy - 31.3 1005.3 0.0
08/10:00am S 6 8 - - - - 10 Partly cloudy - 29.7 1005.7 0.0
08/09:30am S 5 7 - - - - 10 Partly cloudy - 29.9 1005.7 0.0
08/09:00am SE 6 8 - - - - 10 Partly cloudy - 29.9 1006.0 0.2
08/08:30am SE 4 5 - - - - 10 - - 29.5 1005.9 0.2
08/08:00am CALM 0 3 - - - - 10 - - 28.0 1005.5 0.2
08/07:30am NE 1 4 - - - - 10 - - 26.7 1005.1 0.2
08/07:00am CALM 0 0 - - - - 10 - - 25.9 1004.9 0.2
08/06:30am CALM 0 0 - - - - 10 Partly cloudy - 25.8 1004.6 0.2
08/06:00am CALM 0 0 - - - - 10 Cloudy - 25.8 1004.4 0.2
08/05:30am CALM 0 0 - - - - 10 Partly cloudy - 25.7 1004.1 0.2
08/05:00am CALM 0 0 - - - - 10 Cloudy - 25.7 1004.0 0.2
08/04:30am CALM 0 0 - - - - 10 Partly cloudy - 25.3 1003.9 0.2
08/04:00am CALM 0 0 - - - - 10 Partly cloudy - 25.3 1003.7 0.2
08/03:30am NNW 2 3 - - - - 10 Partly cloudy - 25.5 1003.8 0.2
08/03:00am NNW 4 6 - - - - 10 Cloudy - 25.7 1004.0 0.2
08/02:30am NNW 4 5 - - - - 10 Partly cloudy - 25.7 1004.1 0.2
08/02:00am NNE 3 5 - - - - 10 Cloudy - 25.6 1004.6 0.2
08/01:30am NE 5 8 - - - - 10 Partly cloudy - 25.5 1005.1 0.2
08/01:00am NNE 3 4 - - - - 10 Partly cloudy - 25.6 1005.5 0.2
08/12:30am NNW 4 6 - - - - 10 Cloudy - 25.6 1005.9 0.2
08/12:00am NNW 6 9 - - - - 10 Cloudy Rain 25.8 1006.2 0.2
 
Date/Time
EST
Wind Sea
Height
m
Swell Vis
km
Cloud Weather Temp
°C
Press
MSL
hPa
Rain since
9am
mm
Dir  Spd
kts
Gust
kts
Height
m
Period
s
Dir
07/11:30pm NW 8 12 - - - - 10 Partly cloudy - 26.2 1006.7 0.2
07/11:00pm N 5 9 - - - - 10 Partly cloudy - 26.8 1006.9 0.2
07/10:30pm NNE 5 9 - - - - 10 Partly cloudy - 26.5 1006.7 0.2
07/10:00pm WSW 5 6 - - - - 10 Partly cloudy - 26.6 1006.1 0.2
07/09:30pm W 4 6 - - - - 10 Partly cloudy - 26.8 1005.8 0.2
07/09:00pm WSW 5 7 - - - - 10 Mostly cloudy Rain 27.0 1005.3 0.2
07/08:30pm WSW 5 6 - - - - 10 Partly cloudy - 27.0 1005.3 0.2
07/08:00pm WSW 4 6 - - - - 10 Partly cloudy - 27.0 1004.8 0.2
07/07:30pm S 8 10 - - - - 10 Partly cloudy - 27.3 1004.3 0.2
07/07:00pm WSW 6 10 - - - - 10 Partly cloudy - 29.3 1003.9 0.2
07/06:30pm WSW 7 10 - - - - 10 - - 29.8 1003.3 0.2
07/06:00pm W 7 10 - - - - 10 - - 30.8 1002.8 0.2
07/05:30pm WNW 9 11 - - - - 10 - - 31.3 1003.0 0.2
07/05:00pm WNW 8 11 - - - - 10 - - 32.0 1002.7 0.2
07/04:30pm WNW 9 11 - - - - 10 - - 31.5 1002.8 0.2
07/04:00pm WNW 9 13 - - - - 10 Partly cloudy - 32.4 1003.0 0.2
07/03:30pm S 3 5 - - - - 10 Partly cloudy - 34.0 1003.2 0.2
07/03:00pm ESE 3 5 - - - - 10 Mostly clear - 33.1 1003.4 0.2
07/02:30pm ENE 4 8 - - - - 10 - - 33.8 1003.8 0.2
07/02:00pm E 4 7 - - - - 10 Partly cloudy - 33.7 1004.2 0.2
07/01:30pm ESE 6 10 - - - - 10 Partly cloudy - 32.8 1004.7 0.2
07/01:00pm NE 5 8 - - - - 10 - - 33.2 1005.0 0.2
07/12:30pm NNE 6 9 - - - - 10 Partly cloudy - 33.5 1005.6 0.2
07/12:00pm ENE 6 9 - - - - 10 Partly cloudy - 32.4 1006.0 0.2
07/11:30am NE 5 8 - - - - 10 Partly cloudy - 31.6 1006.2 0.2
07/11:00am ENE 5 8 - - - - 10 - - 31.3 1006.5 0.2
07/10:30am ENE 6 8 - - - - 10 - - 30.3 1007.1 0.2
07/10:00am SE 3 6 - - - - 10 Partly cloudy - 29.1 1007.5 0.0
07/09:30am SSE 4 6 - - - - 10 Partly cloudy - 27.6 1007.9 0.0
07/09:04am SW 6 7 - - - - 10 Partly cloudy - 26.4 1007.8 0.0
07/09:00am SW 6 7 - - - - 10 Cloudy Showers 26.4 1007.8 18.0
07/08:42am SSW 5 6 - - - - 3 Partly cloudy - 25.2 1008.0 17.2
07/08:30am SE 4 6 - - - - 4 Partly cloudy - 25.0 1008.3 14.8
07/08:18am E 2 6 - - - - 5 Partly cloudy - 25.0 1008.4 13.4
07/08:08am ENE 3 5 - - - - 10 Partly cloudy - 25.0 1008.3 12.2
07/08:00am ESE 4 5 - - - - 6 Partly cloudy - 25.0 1008.3 12.2
07/07:30am ESE 3 5 - - - - 2 Partly cloudy - 25.0 1008.0 11.6
07/07:24am ESE 5 6 - - - - 6 Partly cloudy - 25.0 1007.9 9.6
07/07:00am ESE 4 5 - - - - 5 Partly cloudy - 25.4 1007.4 4.0
07/06:59am ESE 4 5 - - - - 6 Partly cloudy - 25.4 1007.4 3.8
07/06:44am SE 4 5 - - - - 5 Partly cloudy - 25.4 1007.1 3.0
07/06:30am E 2 4 - - - - 10 Partly cloudy - 25.3 1007.0 2.4
07/06:00am NE 1 4 - - - - 10 Cloudy - 25.2 1006.6 2.4
07/05:30am CALM 0 0 - - - - 10 Partly cloudy - 25.2 1006.4 2.4
07/05:00am CALM 0 0 - - - - 10 Partly cloudy - 25.2 1006.0 2.4
07/04:30am S 1 4 - - - - 10 Partly cloudy - 25.2 1005.8 2.4
07/04:00am SSW 3 4 - - - - 10 Partly cloudy - 25.1 1005.7 2.4
07/03:30am SE 5 6 - - - - 10 Cloudy - 25.3 1005.5 2.2
07/03:00am ESE 2 4 - - - - 10 Cloudy - 25.1 1005.4 2.2
07/02:30am CALM 0 0 - - - - 10 Partly cloudy - 25.0 1005.5 2.2
07/02:00am CALM 0 0 - - - - 10 Partly cloudy - 25.0 1005.5 2.2
07/01:30am CALM 0 2 - - - - 10 Partly cloudy - 25.2 1006.4 2.0
07/01:00am ESE 3 6 - - - - 10 Partly cloudy - 25.6 1006.8 0.4
07/12:30am E 6 9 - - - - 10 Cloudy - 26.5 1007.6 0.2
07/12:00am SE 1 4 - - - - 10 Cloudy - 27.1 1007.0 0.0
 
Date/Time
EST
Wind Sea
Height
m
Swell Vis
km
Cloud Weather Temp
°C
Press
MSL
hPa
Rain since
9am
mm
Dir  Spd
kts
Gust
kts
Height
m
Period
s
Dir
06/11:30pm S 2 5 - - - - 10 Partly cloudy - 26.8 1006.6 0.0
06/11:00pm CALM 0 0 - - - - 10 - - 26.8 1006.4 0.0
06/10:30pm SW 1 4 - - - - 10 Partly cloudy - 27.2 1006.3 0.0
06/10:00pm WSW 2 4 - - - - 10 Partly cloudy - 27.3 1006.2 0.0
06/09:30pm WSW 4 5 - - - - 10 Partly cloudy - 27.5 1006.3 0.0
06/09:00pm W 3 5 - - - - 10 Cloudy - 27.7 1006.4 0.0
06/08:30pm WSW 4 6 - - - - 10 Partly cloudy - 28.2 1005.9 0.0
06/08:00pm WSW 4 6 - - - - 10 Partly cloudy - 28.3 1005.7 0.0
06/07:30pm W 3 5 - - - - 10 Partly cloudy - 28.4 1005.4 0.0
06/07:00pm W 6 7 - - - - 10 Partly cloudy - 29.1 1005.1 0.0
06/06:30pm W 7 10 - - - - 10 Partly cloudy - 30.2 1004.7 0.0
06/06:00pm W 9 11 - - - - 10 Partly cloudy - 30.8 1004.5 0.0
06/05:30pm W 7 9 - - - - 10 Partly cloudy - 30.7 1004.5 0.0
06/05:00pm WSW 7 9 - - - - 10 Cloudy - 30.9 1004.5 0.0
06/04:30pm WSW 7 13 - - - - 10 Partly cloudy - 31.7 1004.4 0.0
06/04:00pm WSW 6 8 - - - - 10 Partly cloudy - 32.3 1004.5 0.0
06/03:30pm W 7 9 - - - - 10 Partly cloudy - 31.2 1004.7 0.0
06/03:00pm WNW 3 7 - - - - 10 Cloudy - 33.1 1005.0 0.0
06/02:30pm WSW 2 5 - - - - 10 Partly cloudy - 34.7 1005.2 0.0
06/02:00pm E 3 5 - - - - 10 Partly cloudy - 33.1 1005.7 0.0
06/01:30pm ENE 4 7 - - - - 10 Partly cloudy - 33.7 1006.0 0.0
06/01:00pm E 4 11 - - - - 10 - - 34.0 1006.5 0.0
06/12:30pm NE 4 7 - - - - 10 Partly cloudy - 33.2 1006.9 0.0
06/12:00pm ENE 4 8 - - - - 10 Mostly clear - 32.8 1007.2 0.0
06/11:30am E 5 8 - - - - 10 Partly cloudy - 32.2 1007.5 0.0
06/11:00am NE 5 8 - - - - 10 - - 32.8 1007.8 0.0
06/10:30am E 5 8 - - - - 10 - - 31.6 1007.9 0.0
06/10:00am E 3 5 - - - - 10 - - 31.8 1007.9 0.0
06/09:30am NNE 3 5 - - - - 10 - - 31.2 1008.0 0.0
06/09:00am ENE 3 4 - - - - 10 - - 30.1 1008.1 0.0
06/08:30am ENE 3 4 - - - - 10 - - 28.7 1008.0 0.0
06/08:00am ENE 3 5 - - - - 10 - - 27.5 1007.8 0.0
06/07:30am CALM 0 0 - - - - 10 - - 25.9 1007.5 0.0
06/07:00am E 3 4 - - - - 10 - - 24.9 1007.3 0.0
06/06:30am CALM 0 0 - - - - 10 - - 24.8 1006.9 0.0
06/06:00am CALM 0 2 - - - - 10 - - 24.5 1006.5 0.0
06/05:30am CALM 0 0 - - - - 10 - - 24.7 1006.1 0.0
06/05:00am CALM 0 0 - - - - 10 - - 24.6 1005.6 0.0
06/04:30am CALM 0 0 - - - - 10 - - 24.9 1005.6 0.0
06/04:00am CALM 0 0 - - - - 10 - - 24.6 1005.7 0.0
06/03:30am CALM 0 0 - - - - 10 - - 24.9 1005.9 0.0
06/03:00am ENE 2 3 - - - - 10 - - 24.8 1005.9 0.0
06/02:30am CALM 0 0 - - - - 10 - - 24.8 1006.0 0.0
06/02:00am CALM 0 0 - - - - 10 - - 24.9 1006.0 0.0
06/01:30am CALM 0 0 - - - - 10 - - 24.8 1006.0 0.0
06/01:00am CALM 0 0 - - - - 10 - - 24.9 1006.1 0.0
06/12:30am CALM 0 0 - - - - 10 - - 25.0 1006.3 0.0
06/12:00am CALM 0 0 - - - - 10 - - 24.9 1006.7 0.0
 
Date/Time
EST
Wind Sea
Height
m
Swell Vis
km
Cloud Weather Temp
°C
Press
MSL
hPa
Rain since
9am
mm
Dir  Spd
kts
Gust
kts
Height
m
Period
s
Dir
05/11:30pm CALM 0 0 - - - - 10 - - 25.2 1006.9 0.0
05/11:00pm CALM 0 0 - - - - 10 - - 25.3 1007.1 0.0
05/10:30pm CALM 0 0 - - - - 10 - - 25.6 1007.1 0.0
05/10:00pm CALM 0 0 - - - - 10 - - 25.4 1006.7 0.0
05/09:30pm CALM 0 0 - - - - 10 - - 25.8 1006.4 0.0
05/09:00pm CALM 0 0 - - - - 10 - - 26.2 1006.4 0.0
05/08:30pm CALM 0 0 - - - - 10 - - 26.6 1006.1 0.0
05/08:00pm WNW 3 5 - - - - 10 - - 27.1 1005.7 0.0
05/07:30pm NW 3 4 - - - - 10 - - 27.6 1005.2 0.0
05/07:00pm WNW 4 6 - - - - 10 - - 28.3 1004.8 0.0
05/06:30pm NW 5 7 - - - - 10 - - 29.0 1004.3 0.0
05/06:00pm WNW 6 8 - - - - 10 - - 29.7 1003.9 0.0
05/05:30pm WNW 7 9 - - - - 10 - - 30.2 1003.8 0.0
05/05:00pm NW 6 8 - - - - 10 - - 30.7 1003.8 0.0

Other formats

Comma delimited format used in spreadsheet applications
http://www.bom.gov.au/fwo/IDQ60701/IDQ60701.94268.axf

JavaScript Object Notation format (JSON) in row-major order
http://www.bom.gov.au/fwo/IDQ60701/IDQ60701.94268.json

Data quality

Most of these data are generated automatically and are frequently updated. Quality checks on data are not normally performed. It is possible for incorrect values to appear. Refer to information at About Latest Weather Observations and please check the disclaimer before using these data.